createdAt,value
2023-04-15T00:01:13.699Z,52.84
2023-04-15T00:03:41.514Z,52.90
2023-04-15T00:06:09.850Z,53.32
2023-04-15T00:08:37.859Z,53.07
2023-04-15T00:11:06.058Z,53.55
2023-04-15T00:13:36.889Z,53.38
2023-04-15T00:16:04.576Z,52.68
2023-04-15T00:18:32.784Z,53.16
2023-04-15T00:21:00.821Z,53.00
2023-04-15T00:23:29.121Z,53.24
2023-04-15T00:25:57.274Z,52.95
2023-04-15T00:28:25.166Z,53.04
2023-04-15T00:30:53.192Z,53.05
2023-04-15T00:33:21.039Z,52.88
2023-04-15T00:35:48.706Z,52.45
2023-04-15T00:38:16.363Z,52.89
2023-04-15T00:40:43.853Z,52.83
2023-04-15T00:43:11.321Z,52.99
2023-04-15T00:45:39.025Z,52.43
2023-04-15T00:48:06.916Z,52.88
2023-04-15T00:50:34.648Z,52.83
2023-04-15T00:53:02.208Z,52.43
2023-04-15T00:55:29.703Z,52.59
2023-04-15T00:57:58.044Z,52.64
2023-04-15T01:00:25.720Z,52.71
2023-04-15T01:02:53.276Z,52.32
2023-04-15T01:05:20.971Z,52.26
2023-04-15T01:07:48.860Z,52.76
2023-04-15T01:10:16.507Z,52.41
2023-04-15T01:12:44.650Z,52.40
2023-04-15T01:15:12.411Z,52.58
2023-04-15T01:17:40.199Z,52.19
2023-04-15T01:20:10.607Z,52.18
2023-04-15T01:22:38.576Z,51.98
2023-04-15T01:25:11.825Z,52.31
2023-04-15T01:27:42.333Z,52.15
2023-04-15T01:30:10.679Z,52.26
2023-04-15T01:32:38.966Z,51.90
2023-04-15T01:35:07.884Z,51.77
2023-04-15T01:37:35.548Z,51.60
2023-04-15T01:40:03.501Z,51.86
2023-04-15T01:42:31.550Z,51.57
2023-04-15T01:44:59.008Z,51.78
2023-04-15T01:47:27.134Z,51.17
2023-04-15T01:49:55.005Z,51.04
2023-04-15T01:52:22.712Z,51.44
2023-04-15T01:54:50.814Z,51.11
2023-04-15T01:57:18.484Z,51.39
2023-04-15T01:59:46.090Z,51.19
2023-04-15T02:02:13.933Z,51.28
2023-04-15T02:04:41.703Z,51.32
2023-04-15T02:07:09.436Z,51.20
2023-04-15T02:09:37.189Z,51.04
2023-04-15T02:12:05.954Z,50.55
2023-04-15T02:14:33.429Z,50.92
2023-04-15T02:17:07.266Z,51.03
2023-04-15T02:19:35.722Z,51.13
2023-04-15T02:22:03.675Z,50.97
2023-04-15T02:24:31.328Z,50.52
2023-04-15T02:26:59.040Z,50.93
2023-04-15T02:29:26.855Z,50.96
2023-04-15T02:31:54.502Z,50.31
2023-04-15T02:34:22.141Z,50.50
2023-04-15T02:36:49.828Z,50.27
2023-04-15T02:39:18.703Z,50.37
2023-04-15T02:41:51.869Z,50.46
2023-04-15T02:44:20.660Z,50.55
2023-04-15T02:46:50.971Z,50.03
2023-04-15T02:49:18.968Z,50.16
2023-04-15T02:51:49.887Z,49.99
2023-04-15T02:54:20.345Z,50.12
2023-04-15T02:56:48.149Z,50.11
2023-04-15T02:59:15.687Z,50.10
2023-04-15T03:01:43.789Z,49.62
2023-04-15T03:04:11.847Z,49.56
2023-04-15T03:06:39.974Z,49.49
2023-04-15T03:09:07.806Z,49.08
2023-04-15T03:11:36.905Z,49.40
2023-04-15T03:14:04.230Z,49.32
2023-04-15T03:16:31.546Z,49.29
2023-04-15T03:18:59.402Z,49.18
2023-04-15T03:21:27.724Z,49.23
2023-04-15T03:23:55.130Z,49.00
2023-04-15T03:26:40.780Z,49.66
2023-04-15T03:29:08.227Z,49.19
2023-04-15T03:31:36.589Z,49.22
2023-04-15T03:34:04.273Z,49.03
2023-04-15T03:36:33.162Z,48.80
2023-04-15T03:39:02.392Z,48.89
2023-04-15T03:41:30.134Z,48.86
2023-04-15T03:43:57.806Z,48.27
2023-04-15T03:46:25.775Z,48.77
2023-04-15T03:48:53.389Z,48.57
2023-04-15T03:51:20.973Z,48.58
2023-04-15T03:53:48.367Z,48.24
2023-04-15T03:56:15.935Z,48.05
2023-04-15T03:58:43.479Z,48.05
2023-04-15T04:01:11.723Z,47.85
2023-04-15T04:03:39.568Z,47.85
2023-04-15T04:06:07.220Z,47.87
2023-04-15T04:08:34.706Z,47.34
2023-04-15T04:11:02.534Z,47.70
2023-04-15T04:13:30.520Z,47.14
2023-04-15T04:15:58.134Z,47.33
2023-04-15T04:18:26.347Z,47.47
2023-04-15T04:20:54.045Z,47.15
2023-04-15T04:23:21.597Z,47.11
2023-04-15T04:25:49.002Z,46.92
2023-04-15T04:28:16.740Z,46.70
2023-04-15T04:30:44.430Z,46.77
2023-04-15T04:33:11.856Z,46.47
2023-04-15T04:35:39.282Z,46.37
2023-04-15T04:38:07.059Z,46.21
2023-04-15T04:40:34.635Z,46.32
2023-04-15T04:43:02.549Z,46.30
2023-04-15T04:45:30.271Z,46.35
2023-04-15T04:47:58.088Z,46.36
2023-04-15T04:50:26.325Z,45.78
2023-04-15T04:52:54.082Z,46.25
2023-04-15T04:55:22.048Z,45.84
2023-04-15T04:57:50.637Z,45.98
2023-04-15T05:00:19.223Z,45.51
2023-04-15T05:02:46.999Z,45.16
2023-04-15T05:05:15.103Z,45.46
2023-04-15T05:07:42.830Z,44.85
2023-04-15T05:10:10.843Z,44.77
2023-04-15T05:12:38.794Z,44.74
2023-04-15T05:15:07.071Z,44.30
2023-04-15T05:17:35.564Z,44.84
2023-04-15T05:20:03.781Z,44.86
2023-04-15T05:22:31.448Z,44.47
2023-04-15T05:24:58.878Z,44.04
2023-04-15T05:27:26.719Z,43.66
2023-04-15T05:29:54.461Z,43.51
2023-04-15T05:32:22.343Z,43.03
2023-04-15T05:34:50.044Z,43.39
2023-04-15T05:37:17.793Z,43.10
2023-04-15T05:39:45.577Z,42.56
2023-04-15T05:42:13.596Z,42.11
2023-04-15T05:44:41.725Z,42.29
2023-04-15T05:47:10.311Z,41.78
2023-04-15T05:49:38.113Z,41.45
2023-04-15T05:52:06.384Z,42.24
2023-04-15T05:54:34.086Z,41.29
2023-04-15T05:57:01.816Z,41.85
2023-04-15T05:59:29.583Z,41.86
2023-04-15T06:01:58.068Z,41.73
2023-04-15T06:04:26.053Z,40.73
2023-04-15T06:06:53.920Z,40.37
2023-04-15T06:09:21.587Z,40.69
2023-04-15T06:11:49.514Z,40.72
2023-04-15T06:14:17.331Z,40.44
2023-04-15T06:16:45.009Z,40.72
2023-04-15T06:19:12.764Z,40.49
2023-04-15T06:21:40.723Z,40.35
2023-04-15T06:24:08.521Z,39.90
2023-04-15T06:26:36.246Z,40.11
2023-04-15T06:29:04.220Z,39.42
2023-04-15T06:31:31.833Z,38.82
2023-04-15T06:33:59.365Z,39.03
2023-04-15T06:36:26.838Z,38.26
2023-04-15T06:38:54.401Z,37.89
2023-04-15T06:41:22.281Z,35.52
2023-04-15T06:43:49.788Z,34.57
2023-04-15T06:46:17.470Z,34.91
2023-04-15T06:48:45.595Z,35.08
2023-04-15T06:51:13.729Z,34.89
2023-04-15T06:53:43.886Z,34.37
2023-04-15T06:56:11.711Z,34.73
2023-04-15T06:58:39.623Z,36.00
2023-04-15T07:01:07.504Z,36.41
2023-04-15T07:03:35.313Z,36.44
2023-04-15T07:06:06.605Z,35.56
2023-04-15T07:08:34.172Z,34.97
2023-04-15T07:11:02.471Z,34.40
2023-04-15T07:13:31.953Z,34.15
2023-04-15T07:15:59.711Z,34.01
2023-04-15T07:18:27.767Z,34.99
2023-04-15T07:20:56.232Z,35.57
2023-04-15T07:23:23.967Z,34.54
2023-04-15T07:25:52.262Z,33.83
2023-04-15T07:28:20.004Z,33.33
2023-04-15T07:30:48.636Z,32.14
2023-04-15T07:33:16.565Z,30.87
2023-04-15T07:35:45.178Z,29.62
2023-04-15T07:38:13.634Z,29.53
2023-04-15T07:40:42.454Z,29.75
2023-04-15T07:43:10.840Z,30.00
2023-04-15T07:45:38.455Z,31.28
2023-04-15T07:48:06.818Z,31.87
2023-04-15T07:50:34.634Z,32.31
2023-04-15T07:53:02.489Z,31.04
2023-04-15T07:55:30.729Z,30.69
2023-04-15T07:57:58.495Z,29.90
2023-04-15T08:00:26.925Z,29.64
2023-04-15T08:02:59.407Z,31.13
2023-04-15T08:05:27.277Z,31.59
2023-04-15T08:07:54.946Z,31.88
2023-04-15T08:10:22.677Z,31.58
2023-04-15T08:12:50.789Z,31.14
2023-04-15T08:15:18.454Z,31.38
2023-04-15T08:17:46.675Z,31.27
2023-04-15T08:20:14.560Z,31.57
2023-04-15T08:22:42.634Z,32.32
2023-04-15T08:25:10.557Z,32.66
2023-04-15T08:27:38.313Z,32.98
2023-04-15T08:30:06.837Z,32.74
2023-04-15T08:32:34.671Z,32.96
2023-04-15T08:35:02.469Z,32.62
2023-04-15T08:37:30.382Z,32.13
2023-04-15T08:39:58.096Z,32.02
2023-04-15T08:42:34.972Z,31.76
2023-04-15T08:45:05.257Z,31.13
2023-04-15T08:47:34.010Z,31.60
2023-04-15T08:50:04.452Z,36.09
2023-04-15T08:52:32.326Z,33.24
2023-04-15T08:55:02.242Z,34.65
2023-04-15T08:57:30.027Z,39.74
2023-04-15T08:59:57.837Z,40.16
2023-04-15T09:02:27.393Z,40.09
2023-04-15T09:04:55.396Z,34.92
2023-04-15T09:07:22.904Z,32.51
2023-04-15T09:09:51.528Z,30.67
2023-04-15T09:12:19.259Z,30.37
2023-04-15T09:14:48.132Z,30.33
2023-04-15T09:17:19.609Z,37.12
2023-04-15T09:19:47.458Z,39.01
2023-04-15T09:22:15.621Z,39.09
2023-04-15T09:24:43.544Z,39.66
2023-04-15T09:27:11.493Z,39.75
2023-04-15T09:29:41.863Z,40.29
2023-04-15T09:32:12.641Z,40.38
2023-04-15T09:34:40.687Z,40.43
2023-04-15T09:37:11.050Z,40.84
2023-04-15T09:39:52.081Z,40.97
2023-04-15T09:42:26.971Z,40.40
2023-04-15T09:44:55.175Z,40.28
2023-04-15T09:47:32.404Z,41.35
2023-04-15T09:50:01.392Z,40.48
2023-04-15T09:52:29.804Z,40.98
2023-04-15T09:54:58.997Z,40.58
2023-04-15T09:57:34.805Z,41.05
2023-04-15T10:00:06.854Z,41.59
2023-04-15T10:02:35.834Z,41.55
2023-04-15T10:05:04.339Z,41.38
2023-04-15T10:07:32.818Z,41.50
2023-04-15T10:10:02.536Z,42.20
2023-04-15T10:12:31.720Z,43.22
2023-04-15T10:15:07.804Z,42.46
2023-04-15T10:17:37.267Z,34.62
2023-04-15T10:20:05.965Z,38.03
2023-04-15T10:22:35.006Z,42.79
2023-04-15T10:25:04.302Z,45.49
2023-04-15T10:27:32.037Z,34.21
2023-04-15T10:30:02.333Z,37.27
2023-04-15T10:32:32.093Z,43.36
2023-04-15T10:35:00.103Z,44.47
2023-04-15T10:37:38.788Z,38.60
2023-04-15T10:40:28.174Z,32.74
2023-04-15T10:42:56.660Z,29.93
2023-04-15T10:45:31.960Z,29.77
2023-04-15T10:48:03.859Z,29.03
2023-04-15T10:50:32.657Z,29.22
2023-04-15T10:53:03.828Z,28.05
2023-04-15T10:55:33.487Z,28.28
2023-04-15T10:58:02.706Z,28.18
2023-04-15T11:00:31.814Z,28.97
2023-04-15T11:03:07.374Z,28.48
2023-04-15T11:05:50.010Z,28.20
2023-04-15T11:08:17.681Z,28.13
2023-04-15T11:10:45.116Z,27.96
2023-04-15T11:13:12.546Z,28.18
2023-04-15T11:15:49.692Z,27.15
2023-04-15T11:18:18.612Z,27.54
2023-04-15T11:20:50.649Z,31.77
2023-04-15T11:23:19.992Z,38.26
2023-04-15T11:25:48.899Z,39.42
2023-04-15T11:28:16.616Z,39.53
2023-04-15T11:30:44.752Z,39.97
2023-04-15T11:33:13.877Z,40.62
2023-04-15T11:35:42.138Z,38.71
2023-04-15T11:38:12.201Z,40.08
2023-04-15T11:40:40.446Z,41.75
2023-04-15T11:43:11.617Z,33.31
2023-04-15T11:45:55.919Z,29.52
2023-04-15T11:48:28.842Z,29.06
2023-04-15T11:51:04.203Z,29.11
2023-04-15T11:53:50.921Z,29.16
2023-04-15T11:56:26.291Z,28.91
2023-04-15T11:59:03.043Z,29.46
2023-04-15T12:01:39.884Z,28.89
2023-04-15T12:04:17.252Z,28.81
2023-04-15T12:06:45.785Z,29.46
2023-04-15T12:09:15.376Z,29.27
2023-04-15T12:11:49.563Z,28.63
2023-04-15T12:14:26.142Z,28.45
2023-04-15T12:17:00.390Z,28.88
2023-04-15T12:19:40.380Z,28.74
2023-04-15T12:22:15.278Z,28.54
2023-04-15T12:24:44.484Z,28.92
2023-04-15T12:27:13.288Z,34.24
2023-04-15T12:29:45.625Z,38.48
2023-04-15T12:32:19.778Z,39.16
2023-04-15T12:34:52.129Z,39.84
2023-04-15T12:37:19.790Z,39.65
2023-04-15T12:39:49.707Z,40.32
2023-04-15T12:42:18.515Z,39.68
2023-04-15T12:44:46.931Z,39.21
2023-04-15T12:47:14.733Z,39.61
2023-04-15T12:49:42.339Z,39.79
2023-04-15T12:52:10.266Z,39.13
2023-04-15T12:54:37.963Z,40.02
2023-04-15T12:57:07.544Z,39.71
2023-04-15T12:59:36.516Z,40.21
2023-04-15T13:02:04.813Z,40.84
2023-04-15T13:04:32.504Z,41.38
2023-04-15T13:07:00.067Z,41.52
2023-04-15T13:09:27.558Z,42.47
2023-04-15T13:11:56.392Z,43.09
2023-04-15T13:14:24.137Z,43.65
2023-04-15T13:16:52.052Z,44.09
2023-04-15T13:19:19.501Z,44.74
2023-04-15T13:21:47.344Z,45.40
2023-04-15T13:24:14.888Z,45.10
2023-04-15T13:26:42.739Z,45.63
2023-04-15T13:29:11.788Z,45.54
2023-04-15T13:31:39.692Z,45.96
2023-04-15T13:34:07.951Z,45.97
2023-04-15T13:36:36.057Z,46.11
2023-04-15T13:39:05.535Z,46.26
2023-04-15T13:41:33.345Z,46.51
2023-04-15T13:44:01.256Z,47.20
2023-04-15T13:46:28.948Z,47.28
2023-04-15T13:48:56.777Z,47.64
2023-04-15T13:51:24.328Z,47.80
2023-04-15T13:53:52.515Z,47.64
2023-04-15T13:56:20.264Z,47.95
2023-04-15T13:58:48.407Z,48.19
2023-04-15T14:01:16.405Z,48.74
2023-04-15T14:03:44.645Z,48.66
2023-04-15T14:06:12.579Z,48.41
2023-04-15T14:08:40.103Z,48.72
2023-04-15T14:11:07.662Z,48.60
2023-04-15T14:13:36.133Z,49.09
2023-04-15T14:16:03.974Z,49.14
2023-04-15T14:18:31.442Z,48.95
2023-04-15T14:20:58.927Z,49.01
2023-04-15T14:23:27.231Z,49.21
2023-04-15T14:25:55.151Z,48.99
2023-04-15T14:28:22.799Z,49.69
2023-04-15T14:30:50.742Z,48.94
2023-04-15T14:33:18.394Z,49.29
2023-04-15T14:35:46.333Z,48.91
2023-04-15T14:38:13.842Z,48.92
2023-04-15T14:40:41.758Z,49.38
2023-04-15T14:43:09.406Z,49.76
2023-04-15T14:45:40.472Z,49.39
2023-04-15T14:48:12.703Z,49.37
2023-04-15T14:50:40.685Z,49.14
2023-04-15T14:53:08.218Z,48.73
2023-04-15T14:55:36.364Z,48.99
2023-04-15T14:58:04.479Z,48.86
2023-04-15T15:00:32.154Z,47.94
2023-04-15T15:03:00.313Z,48.42
2023-04-15T15:05:28.374Z,48.44
2023-04-15T15:07:56.569Z,48.26
2023-04-15T15:10:32.872Z,48.30
2023-04-15T15:13:12.590Z,48.16
2023-04-15T15:15:40.793Z,48.01
2023-04-15T15:18:08.394Z,47.93
2023-04-15T15:20:36.265Z,47.66
2023-04-15T15:23:03.818Z,47.28
2023-04-15T15:25:31.828Z,47.46
2023-04-15T15:27:59.728Z,48.12
2023-04-15T15:30:27.533Z,46.92
2023-04-15T15:32:56.109Z,47.26
2023-04-15T15:35:23.928Z,47.49
2023-04-15T15:37:52.562Z,46.06
2023-04-15T15:40:20.789Z,46.49
2023-04-15T15:42:50.867Z,45.14
2023-04-15T15:45:18.474Z,44.40
2023-04-15T15:47:46.646Z,44.15
2023-04-15T15:50:14.690Z,43.64
2023-04-15T15:52:42.586Z,43.81
2023-04-15T15:55:10.303Z,43.34
2023-04-15T15:57:38.155Z,43.55
2023-04-15T16:00:12.171Z,43.61
2023-04-15T16:05:11.760Z,42.83
2023-04-15T16:07:39.273Z,43.12
2023-04-15T16:10:07.542Z,43.40
2023-04-15T16:12:35.210Z,43.29
2023-04-15T16:15:04.290Z,43.10
2023-04-15T16:17:32.721Z,43.40
2023-04-15T16:20:01.379Z,42.99
2023-04-15T16:22:29.863Z,42.83
2023-04-15T16:24:58.992Z,43.12
2023-04-15T16:27:27.079Z,42.76
2023-04-15T16:29:54.548Z,42.86
2023-04-15T16:32:22.516Z,42.91
2023-04-15T16:34:50.397Z,42.71
2023-04-15T16:37:18.162Z,42.12
2023-04-15T16:39:46.110Z,41.70
2023-04-15T16:42:13.920Z,41.17
2023-04-15T16:44:41.663Z,40.99
2023-04-15T16:47:11.965Z,40.34
2023-04-15T16:49:39.443Z,40.14
2023-04-15T16:52:07.869Z,40.13
2023-04-15T16:54:40.609Z,39.84
2023-04-15T16:57:08.825Z,39.39
2023-04-15T16:59:37.848Z,39.27
2023-04-15T17:02:05.859Z,39.36
2023-04-15T17:04:34.950Z,39.70
2023-04-15T17:07:02.872Z,39.78
2023-04-15T17:09:30.709Z,39.87
2023-04-15T17:11:58.692Z,39.63
2023-04-15T17:14:28.626Z,39.83
2023-04-15T17:16:56.253Z,40.05
2023-04-15T17:19:23.837Z,39.64
2023-04-15T17:21:54.260Z,39.86
2023-04-15T17:24:22.629Z,39.86
2023-04-15T17:26:50.625Z,39.86
2023-04-15T17:29:18.359Z,39.92
2023-04-15T17:31:46.147Z,39.76
2023-04-15T17:34:15.798Z,39.90
2023-04-15T17:36:43.851Z,39.91
2023-04-15T17:39:11.999Z,39.91
2023-04-15T17:41:40.082Z,40.13
2023-04-15T17:44:07.764Z,40.11
2023-04-15T17:46:35.756Z,40.25
2023-04-15T17:49:06.099Z,40.17
2023-04-15T17:51:39.867Z,40.28
2023-04-15T17:54:07.792Z,40.30
2023-04-15T17:56:35.418Z,40.49
2023-04-15T17:59:03.555Z,40.30
2023-04-15T18:01:31.268Z,40.44
2023-04-15T18:03:59.803Z,40.36
2023-04-15T18:06:27.617Z,40.47
2023-04-15T18:08:55.175Z,40.28
2023-04-15T18:11:22.887Z,40.22
2023-04-15T18:13:50.513Z,40.46
2023-04-15T18:16:18.375Z,40.32
2023-04-15T18:18:46.033Z,40.23
2023-04-15T18:21:13.974Z,40.08
2023-04-15T18:23:42.306Z,40.17
2023-04-15T18:26:10.152Z,39.82
2023-04-15T18:28:39.852Z,40.12
2023-04-15T18:31:07.769Z,39.59
2023-04-15T18:33:35.872Z,39.56
2023-04-15T18:36:03.761Z,39.60
2023-04-15T18:38:31.871Z,39.95
2023-04-15T18:40:59.628Z,40.19
2023-04-15T18:43:27.781Z,39.97
2023-04-15T18:45:55.920Z,39.94
2023-04-15T18:48:26.092Z,40.07
2023-04-15T18:50:54.253Z,39.97
2023-04-15T18:53:21.844Z,39.73
2023-04-15T18:55:49.682Z,40.18
2023-04-15T18:58:19.261Z,40.04
2023-04-15T19:00:47.447Z,39.71
2023-04-15T19:03:15.697Z,39.38
2023-04-15T19:05:43.501Z,39.60
2023-04-15T19:08:11.945Z,39.19
2023-04-15T19:10:39.702Z,39.81
2023-04-15T19:13:07.670Z,39.18
2023-04-15T19:15:35.504Z,39.44
2023-04-15T19:18:05.342Z,39.10
2023-04-15T19:20:36.198Z,39.24
2023-04-15T19:23:06.171Z,39.15
2023-04-15T19:25:34.213Z,39.40
2023-04-15T19:28:03.415Z,39.41
2023-04-15T19:30:33.006Z,39.58
2023-04-15T19:33:00.887Z,39.03
2023-04-15T19:35:29.466Z,39.15
2023-04-15T19:37:59.134Z,39.15
2023-04-15T19:40:26.907Z,39.17
2023-04-15T19:42:54.874Z,39.66
2023-04-15T19:45:23.145Z,39.43
2023-04-15T19:47:52.192Z,39.99
2023-04-15T19:50:24.685Z,39.58
2023-04-15T19:52:53.223Z,39.66
2023-04-15T19:55:21.907Z,39.98
2023-04-15T19:57:49.981Z,39.94
2023-04-15T20:00:17.557Z,40.06
2023-04-15T20:02:45.564Z,40.18
2023-04-15T20:05:13.989Z,40.35
2023-04-15T20:07:42.746Z,40.74
2023-04-15T20:10:13.233Z,40.99
2023-04-15T20:12:50.466Z,40.54
2023-04-15T20:15:23.734Z,41.23
2023-04-15T20:17:51.779Z,41.39
2023-04-15T20:20:20.081Z,41.22
2023-04-15T20:22:47.964Z,41.90
2023-04-15T20:25:15.853Z,42.01
2023-04-15T20:27:44.128Z,42.14
2023-04-15T20:30:11.910Z,41.63
2023-04-15T20:32:39.707Z,41.81
2023-04-15T20:35:07.752Z,41.87
2023-04-15T20:37:37.571Z,42.58
2023-04-15T20:40:05.985Z,42.33
2023-04-15T20:42:36.803Z,42.87
2023-04-15T20:45:07.035Z,42.69
2023-04-15T20:47:35.118Z,43.43
2023-04-15T20:50:02.912Z,43.17
2023-04-15T20:52:31.844Z,43.37
2023-04-15T20:54:59.301Z,43.21
2023-04-15T20:57:27.328Z,43.59
2023-04-15T20:59:55.193Z,44.00
2023-04-15T21:02:24.200Z,43.57
2023-04-15T21:04:52.147Z,44.47
2023-04-15T21:07:20.033Z,44.27
2023-04-15T21:09:47.838Z,43.84
2023-04-15T21:12:15.641Z,43.85
2023-04-15T21:14:43.478Z,44.24
2023-04-15T21:17:11.566Z,43.62
2023-04-15T21:19:40.361Z,43.38
2023-04-15T21:22:08.467Z,43.65
2023-04-15T21:24:36.272Z,44.08
2023-04-15T21:27:04.058Z,43.85
2023-04-15T21:29:31.793Z,44.28
2023-04-15T21:32:00.121Z,44.48
2023-04-15T21:34:27.736Z,44.44
2023-04-15T21:36:55.407Z,44.87
2023-04-15T21:39:22.890Z,44.67
2023-04-15T21:41:50.822Z,45.19
2023-04-15T21:44:18.548Z,45.40
2023-04-15T21:46:46.370Z,44.28
2023-04-15T21:49:14.273Z,44.71
2023-04-15T21:51:41.984Z,44.90
2023-04-15T21:54:09.439Z,44.75
2023-04-15T21:56:37.928Z,44.55
2023-04-15T21:59:05.595Z,44.67
2023-04-15T22:01:33.378Z,44.53
2023-04-15T22:04:01.682Z,44.47
2023-04-15T22:06:29.592Z,44.45
2023-04-15T22:08:57.968Z,44.36
2023-04-15T22:11:30.444Z,44.59
2023-04-15T22:13:59.391Z,43.91
2023-04-15T22:16:27.158Z,44.50
2023-04-15T22:18:55.357Z,43.81
2023-04-15T22:21:23.174Z,44.45
2023-04-15T22:23:51.463Z,44.47
2023-04-15T22:26:18.990Z,44.50
2023-04-15T22:28:46.533Z,43.94
2023-04-15T22:31:14.988Z,43.69
2023-04-15T22:33:42.781Z,43.56
2023-04-15T22:36:10.697Z,43.32
2023-04-15T22:38:38.463Z,43.54
2023-04-15T22:41:06.674Z,43.83
2023-04-15T22:43:34.108Z,43.33
2023-04-15T22:46:01.942Z,43.38
2023-04-15T22:48:29.790Z,43.78
2023-04-15T22:50:57.303Z,43.16
2023-04-15T22:53:24.977Z,42.73
2023-04-15T22:55:53.999Z,43.46
2023-04-15T22:58:21.555Z,43.13
2023-04-15T23:00:49.716Z,42.97
2023-04-15T23:03:17.682Z,43.37
2023-04-15T23:05:46.214Z,43.43
2023-04-15T23:08:13.947Z,43.82
2023-04-15T23:10:41.784Z,44.51
2023-04-15T23:13:09.506Z,44.02
2023-04-15T23:15:37.124Z,44.06
2023-04-15T23:18:05.239Z,44.03
2023-04-15T23:20:33.240Z,44.32
2023-04-15T23:23:01.048Z,44.57
2023-04-15T23:25:28.814Z,44.33
2023-04-15T23:27:56.522Z,44.38
2023-04-15T23:30:24.264Z,44.64
2023-04-15T23:32:51.755Z,44.48
2023-04-15T23:35:19.587Z,44.10
2023-04-15T23:37:47.177Z,44.10
2023-04-15T23:40:15.668Z,44.19
2023-04-15T23:42:43.589Z,44.19
2023-04-15T23:45:12.246Z,44.39
2023-04-15T23:47:40.105Z,43.96
2023-04-15T23:50:08.433Z,43.59
2023-04-15T23:52:36.458Z,43.48
2023-04-15T23:55:04.409Z,44.31
2023-04-15T23:57:32.207Z,43.61
